Das ist die Wetter- und Hausseite der Bittkau's aus Magdeburg Ottersleben


Hier werden aktuelle Daten aus der privaten Wetterstation und

andere lokale Wettervorhersagen bereitgestellt




Thunder radar more information blitzortung!


Rain radar more information rain snow radar



Es ist keine erhöhte Aufmerksamkeit aufgrund des Wetters notwendig.    Es gibt keine Warnungen.

METAR-Meldungen aus der Umgebung

   
EDDP - Leipzig
Aktualisierung: 29.10.2020 2:50
Teilweise bewölkt  
Teilweise bewölkt  
   Wind: Süden 29.6 km/h
Wind: Süden 29.6 km/h
Temperatur: 11°C
Taupunkt: 7°C
Luftfeuchte: 77%
Luftdruck: 1009 hPa
Bewölkt: Teilweise bewölkt
Sichtbarkeit: More than 10 km
Bewölkung: Teilweise bewölkt 1371.6 m
EDDP 290150Z 19016KT 9999 SCT045 11/07 Q1009 TEMPO 20015G25KT SHRA
EDDC - Dresden
Aktualisierung: 29.10.2020 2:50
Klar  
Klar  
   Wind: Süden 22.2 km/h
Wind: Süden 22.2 km/h
Temperatur: 10°C
Gefühlt: 7°C
Taupunkt: 6°C
Luftfeuchte: 76%
Luftdruck: 1011 hPa
Sichtbarkeit: More than 10 km
Bewölkung: Klar
EDDC 290150Z 19012KT CAVOK 10/06 Q1011
EDDE - Erfurt
Aktualisierung: 29.10.2020 2:50
Leichter Niederschlag möglich, Teilweise bewölkt  
Leichter Niederschlag möglich, Teilweise bewölkt  
   Wind: SSW 24.1 km/h
Wind: SSW 24.1 km/h
Temperatur: 10°C
Gefühlt: 7°C
Taupunkt: 7°C
Luftfeuchte: 82%
Luftdruck: 1009 hPa
Bewölkt: Teilweise bewölkt
Sichtbarkeit: More than 10 km
Bewölkung: leicht bewölkt 762 m,
Teilweise bewölkt 1493.5 m
EDDE 290150Z 20013KT 9999 -RA FEW025 SCT049 10/07 Q1009
EDVE - Braunschweig
Aktualisierung: 29.10.2020 2:50
Bewölkt  
Bewölkt  
   Wind: SW 18.5 km/h
Wind: SW 18.5 km/h
Temperatur: 11°C
Taupunkt: 7°C
Luftfeuchte: 77%
Luftdruck: 1006 hPa
Bewölkt: Bewölkt
Sichtbarkeit: More than 10 km
Bewölkung: Stark bewölkt 1310.6 m,
Bewölkt 1524 m
EDVE 290150Z AUTO 23010KT 200V260 9999 // BKN043/// OVC050/// 11/07 Q1006
EDDV - Hannover
Aktualisierung: 29.10.2020 2:50
leichter Regen, Regen, Stark bewölkt  
leichter Regen, Regen, Stark bewölkt  
   Wind: SW 18.5 km/h
Wind: SW 18.5 km/h
Temperatur: 10°C
Gefühlt: 8°C
Taupunkt: 8°C
Luftfeuchte: 88%
Luftdruck: 1006 hPa
Bewölkt: Stark bewölkt
Sichtbarkeit: More than 10 km
Bewölkung: leicht bewölkt 609.6 m,
Stark bewölkt 975.4 m
EDDV 290150Z 23010KT 200V260 9999 -SHRA FEW020 BKN032 10/08 Q1006
EDDT - Berlin
Aktualisierung: 29.10.2020 2:50
Leichter Niederschlag möglich, Teilweise bewölkt  
Leichter Niederschlag möglich, Teilweise bewölkt  
   Wind: Süden 11.1 km/h
Wind: Süden 11.1 km/h
Temperatur: 10°C
Gefühlt: 8°C
Taupunkt: 7°C
Luftfeuchte: 82%
Luftdruck: 1008 hPa
Bewölkt: Teilweise bewölkt
Sichtbarkeit: More than 10 km
Bewölkung: Teilweise bewölkt
EDDT 290150Z 19006KT 9999 -RA NSC 10/07 Q1008
EDDE - Schwerin
Aktualisierung: 29.10.2020 2:50
Leichter Niederschlag möglich, Teilweise bewölkt  
Leichter Niederschlag möglich, Teilweise bewölkt  
   Wind: SSW 24.1 km/h
Wind: SSW 24.1 km/h
Temperatur: 10°C
Gefühlt: 7°C
Taupunkt: 7°C
Luftfeuchte: 82%
Luftdruck: 1009 hPa
Bewölkt: Teilweise bewölkt
Sichtbarkeit: More than 10 km
Bewölkung: leicht bewölkt 762 m,
Teilweise bewölkt 1493.5 m
EDDE 290150Z 20013KT 9999 -RA FEW025 SCT049 10/07 Q1009
EDHI - Hamburg
Aktualisierung: 29.10.2020 2:50
Bewölkt  
Bewölkt  
   Wind: SW 16.7 km/h
Wind: SW 16.7 km/h
Temperatur: 10°C
Gefühlt: 8°C
Taupunkt: 8°C
Luftfeuchte: 88%
Luftdruck: 1003 hPa
Bewölkt: Bewölkt
Sichtbarkeit: More than 10 km
Bewölkung: leicht bewölkt 365.8 m,
Teilweise bewölkt 487.7 m,
Bewölkt 1554.5 m
EDHI 290150Z AUTO 22009KT 9999 // FEW012/// SCT016/// OVC051/// 10/08 Q1003
EDDK - Köln-Bonn
Aktualisierung: 29.10.2020 2:50
Stark bewölkt  
Stark bewölkt  
   Wind: WSW 18.5 km/h
Wind: WSW 18.5 km/h
Temperatur: 11°C
Taupunkt: 8°C
Luftfeuchte: 82%
Luftdruck: 1010 hPa
Bewölkt: Stark bewölkt
Sichtbarkeit: More than 10 km
Bewölkung: leicht bewölkt 701 m,
Stark bewölkt 1219.2 m
EDDK 290150Z 24010KT 9999 FEW023 BKN040 11/08 Q1010 NOSIG
EDHL - Lübeck-Blankensee
Aktualisierung: 28.10.2020 10:50
Nicht aktuell
Teilweise bewölkt  
Teilweise bewölkt  
   Wind: SO 9.3 km/h
Wind: SO 9.3 km/h
Temperatur: 10°C
Gefühlt: 9°C
Taupunkt: 7°C
Luftfeuchte: 82%
Luftdruck: 1005 hPa
Bewölkt: Teilweise bewölkt
Sichtbarkeit: More than 10 km
Bewölkung: Teilweise bewölkt 1127.8 m
EDHL 282150Z 14005KT 9999 SCT037 10/07 Q1005
  

Script entwickelt von  Saratoga-weather.org Angepasst für das Template von  Weerstation Leuven

Sie finden die Wetterinfo auch auf:

Wetternetzwerk Deutschland

European Weather Network

Weather Underground

Regionalwetter-SA

wetter.com

wxforum.de

Genutzte Hardware, Software und WEB Anbieter:

Wetterstation
Ventus W928-Ultimate

Wetterprogramm
Meteohub

WetterComputer
RaspberryPI

Anbieter
WEB Provider One.com

Ventus W928-Ultimate

Meteohub

RaspberryPI

WEB Provider One.com